createdAt,value
2018-07-04T00:00:40.660Z,1008.94
2018-07-04T00:01:40.636Z,1008.93
2018-07-04T00:02:40.620Z,1008.96
2018-07-04T00:03:40.608Z,1008.92
2018-07-04T00:04:41.044Z,1008.93
2018-07-04T00:05:40.576Z,1008.92
2018-07-04T00:06:40.563Z,1008.96
2018-07-04T00:07:40.548Z,1008.91
2018-07-04T00:08:40.532Z,1008.92
2018-07-04T00:09:40.518Z,1008.98
2018-07-04T00:10:40.552Z,1008.99
2018-07-04T00:11:40.492Z,1009.00
2018-07-04T00:12:40.473Z,1009.02
2018-07-04T00:13:40.460Z,1009.02
2018-07-04T00:14:40.444Z,1009.02
2018-07-04T00:15:40.434Z,1009.04
2018-07-04T00:16:40.471Z,1009.04
2018-07-04T00:17:40.404Z,1009.04
2018-07-04T00:18:40.389Z,1009.01
2018-07-04T00:19:40.385Z,1008.98
2018-07-04T00:20:40.356Z,1009.00
2018-07-04T00:21:40.392Z,1009.02
2018-07-04T00:22:40.323Z,1009.02
2018-07-04T00:23:40.311Z,1009.02
2018-07-04T00:24:40.297Z,1009.01
2018-07-04T00:25:40.339Z,1009.02
2018-07-04T00:26:40.265Z,1009.01
2018-07-04T00:27:40.601Z,1009.04
2018-07-04T00:28:40.242Z,1009.03
2018-07-04T00:29:40.230Z,1008.98
2018-07-04T00:30:40.206Z,1009.02
2018-07-04T00:31:40.192Z,1008.99
2018-07-04T00:32:40.185Z,1008.99
2018-07-04T00:33:40.212Z,1008.97
2018-07-04T00:34:40.147Z,1008.98
2018-07-04T00:35:40.133Z,1008.97
2018-07-04T00:36:40.121Z,1008.98
2018-07-04T00:37:40.099Z,1009.03
2018-07-04T00:38:40.088Z,1009.04
2018-07-04T00:39:40.121Z,1009.00
2018-07-04T00:40:40.056Z,1008.97
2018-07-04T00:41:40.044Z,1009.05
2018-07-04T00:42:40.034Z,1009.00
2018-07-04T00:43:40.011Z,1009.03
2018-07-04T00:44:39.997Z,1009.02
2018-07-04T00:45:40.032Z,1009.02
2018-07-04T00:46:39.964Z,1009.01
2018-07-04T00:47:39.949Z,1008.99
2018-07-04T00:48:39.936Z,1009.03
2018-07-04T00:49:39.919Z,1008.99
2018-07-04T00:50:39.905Z,1008.99
2018-07-04T00:51:39.940Z,1009.01
2018-07-04T00:52:39.875Z,1009.00
2018-07-04T00:53:39.857Z,1009.00
2018-07-04T00:54:39.848Z,1008.98
2018-07-04T00:55:39.827Z,1009.04
2018-07-04T00:56:39.812Z,1008.99
2018-07-04T00:57:39.849Z,1009.01
2018-07-04T00:58:39.784Z,1008.98
2018-07-04T00:59:39.773Z,1008.96
2018-07-04T01:00:39.750Z,1008.98
2018-07-04T01:01:39.738Z,1008.99
2018-07-04T01:02:39.720Z,1008.99
2018-07-04T01:03:39.756Z,1009.00
2018-07-04T01:04:39.688Z,1008.96
2018-07-04T01:05:39.676Z,1008.97
2018-07-04T01:06:39.659Z,1009.02
2018-07-04T01:07:39.642Z,1008.97
2018-07-04T01:08:39.627Z,1008.93
2018-07-04T01:09:39.676Z,1008.91
2018-07-04T01:10:39.596Z,1008.93
2018-07-04T01:11:39.585Z,1008.90
2018-07-04T01:12:39.567Z,1008.88
2018-07-04T01:13:39.549Z,1008.91
2018-07-04T01:14:39.535Z,1008.89
2018-07-04T01:15:39.569Z,1008.88
2018-07-04T01:16:39.507Z,1008.88
2018-07-04T01:17:39.492Z,1008.90
2018-07-04T01:18:39.473Z,1008.92
2018-07-04T01:19:39.520Z,1008.92
2018-07-04T01:20:39.440Z,1008.93
2018-07-04T01:21:39.423Z,1008.94
2018-07-04T01:22:39.411Z,1008.92
2018-07-04T01:23:39.392Z,1008.98
2018-07-04T01:24:39.428Z,1008.97
2018-07-04T01:25:39.364Z,1008.99
2018-07-04T01:26:39.346Z,1008.92
2018-07-04T01:27:39.332Z,1008.91
2018-07-04T01:28:39.315Z,1008.90
2018-07-04T01:29:39.299Z,1008.90
2018-07-04T01:30:39.330Z,1008.87
2018-07-04T01:31:39.267Z,1008.89
2018-07-04T01:32:39.258Z,1008.86
2018-07-04T01:33:39.235Z,1008.90
2018-07-04T01:34:39.219Z,1008.90
2018-07-04T01:35:39.206Z,1008.95
2018-07-04T01:36:39.248Z,1008.94
2018-07-04T01:37:39.173Z,1008.93
2018-07-04T01:38:39.154Z,1008.94
2018-07-04T01:39:39.138Z,1008.90
2018-07-04T01:40:39.173Z,1008.89
2018-07-04T01:41:39.109Z,1008.86
2018-07-04T01:42:39.096Z,1008.84
2018-07-04T01:43:39.075Z,1008.86
2018-07-04T01:44:39.060Z,1008.89
2018-07-04T01:45:39.042Z,1008.88
2018-07-04T01:46:39.077Z,1008.91
2018-07-04T01:47:39.010Z,1008.93
2018-07-04T01:48:38.993Z,1008.91
2018-07-04T01:49:38.978Z,1008.94
2018-07-04T01:50:38.963Z,1008.92
2018-07-04T01:51:38.950Z,1008.87
2018-07-04T01:52:38.979Z,1008.87
2018-07-04T01:53:38.911Z,1008.83
2018-07-04T01:54:38.895Z,1008.77
2018-07-04T01:55:38.884Z,1008.75
2018-07-04T01:56:38.916Z,1008.72
2018-07-04T01:57:38.847Z,1008.70
2018-07-04T01:58:38.831Z,1008.68
2018-07-04T01:59:38.814Z,1008.65
2018-07-04T02:00:38.798Z,1008.66
2018-07-04T02:01:38.783Z,1008.67
2018-07-04T02:02:38.814Z,1008.65
2018-07-04T02:03:38.751Z,1008.67
2018-07-04T02:04:38.732Z,1008.64
2018-07-04T02:05:38.715Z,1008.67
2018-07-04T02:06:38.700Z,1008.64
2018-07-04T02:07:38.732Z,1008.67
2018-07-04T02:08:38.666Z,1008.60
2018-07-04T02:09:38.651Z,1008.60
2018-07-04T02:10:38.632Z,1008.62
2018-07-04T02:11:38.620Z,1008.63
2018-07-04T02:12:38.652Z,1008.65
2018-07-04T02:13:38.583Z,1008.70
2018-07-04T02:14:38.566Z,1008.68
2018-07-04T02:15:38.550Z,1008.69
2018-07-04T02:16:38.535Z,1008.65
2018-07-04T02:17:38.516Z,1008.66
2018-07-04T02:18:38.549Z,1008.65
2018-07-04T02:19:38.482Z,1008.67
2018-07-04T02:20:38.466Z,1008.66
2018-07-04T02:21:38.452Z,1008.67
2018-07-04T02:22:38.439Z,1008.70
2018-07-04T02:23:38.466Z,1008.66
2018-07-04T02:24:38.404Z,1008.66
2018-07-04T02:25:38.383Z,1008.64
2018-07-04T02:26:38.368Z,1008.63
2018-07-04T02:27:38.353Z,1008.64
2018-07-04T02:28:38.334Z,1008.65
2018-07-04T02:29:38.370Z,1008.65
2018-07-04T02:30:38.309Z,1008.67
2018-07-04T02:31:38.287Z,1008.67
2018-07-04T02:32:38.268Z,1008.69
2018-07-04T02:33:38.256Z,1008.71
2018-07-04T02:34:38.236Z,1008.67
2018-07-04T02:35:38.268Z,1008.69
2018-07-04T02:36:38.200Z,1008.64
2018-07-04T02:37:38.185Z,1008.69
2018-07-04T02:38:38.165Z,1008.69
2018-07-04T02:39:38.150Z,1008.66
2018-07-04T02:40:38.132Z,1008.66
2018-07-04T02:41:38.175Z,1008.67
2018-07-04T02:42:38.099Z,1008.66
2018-07-04T02:43:38.082Z,1008.72
2018-07-04T02:44:38.068Z,1008.72
2018-07-04T02:45:38.104Z,1008.74
2018-07-04T02:46:38.034Z,1008.72
2018-07-04T02:47:38.022Z,1008.70
2018-07-04T02:48:38.004Z,1008.74
2018-07-04T02:49:37.983Z,1008.74
2018-07-04T02:50:37.966Z,1008.70
2018-07-04T02:51:37.999Z,1008.70
2018-07-04T02:52:37.936Z,1008.66
2018-07-04T02:53:37.919Z,1008.70
2018-07-04T02:54:37.902Z,1008.68
2018-07-04T02:55:37.886Z,1008.71
2018-07-04T02:56:37.919Z,1008.73
2018-07-04T02:57:37.851Z,1008.73
2018-07-04T02:58:37.833Z,1008.73
2018-07-04T02:59:57.020Z,1008.73
2018-07-04T03:00:37.798Z,1008.73
2018-07-04T03:01:37.834Z,1008.68
2018-07-04T03:02:37.771Z,1008.70
2018-07-04T03:03:37.749Z,1008.72
2018-07-04T03:04:37.739Z,1008.68
2018-07-04T03:05:37.715Z,1008.67
2018-07-04T03:06:37.788Z,1008.71
2018-07-04T03:07:37.742Z,1008.70
2018-07-04T03:08:37.665Z,1008.70
2018-07-04T03:09:37.651Z,1008.71
2018-07-04T03:10:37.632Z,1008.69
2018-07-04T03:11:37.616Z,1008.71
2018-07-04T03:12:37.658Z,1008.76
2018-07-04T03:13:37.580Z,1008.75
2018-07-04T03:14:37.567Z,1008.68
2018-07-04T03:15:37.548Z,1008.67
2018-07-04T03:16:37.531Z,1008.66
2018-07-04T03:17:37.569Z,1008.65
2018-07-04T03:18:37.503Z,1008.63
2018-07-04T03:19:37.485Z,1008.65
2018-07-04T03:20:37.464Z,1008.70
2018-07-04T03:21:37.446Z,1008.67
2018-07-04T03:22:37.480Z,1008.67
2018-07-04T03:23:37.412Z,1008.67
2018-07-04T03:24:37.400Z,1008.69
2018-07-04T03:25:37.379Z,1008.65
2018-07-04T03:26:37.362Z,1008.65
2018-07-04T03:27:37.400Z,1008.68
2018-07-04T03:28:37.329Z,1008.65
2018-07-04T03:29:37.316Z,1008.66
2018-07-04T03:30:37.296Z,1008.71
2018-07-04T03:31:37.280Z,1008.71
2018-07-04T03:32:37.263Z,1008.71
2018-07-04T03:33:37.299Z,1008.69
2018-07-04T03:34:37.232Z,1008.71
2018-07-04T03:35:37.211Z,1008.66
2018-07-04T03:36:37.195Z,1008.67
2018-07-04T03:37:37.180Z,1008.65
2018-07-04T03:38:37.209Z,1008.66
2018-07-04T03:39:37.147Z,1008.66
2018-07-04T03:40:37.127Z,1008.65
2018-07-04T03:41:37.111Z,1008.66
2018-07-04T03:42:37.096Z,1008.68
2018-07-04T03:43:37.126Z,1008.68
2018-07-04T03:44:37.065Z,1008.66
2018-07-04T03:45:37.044Z,1008.68
2018-07-04T03:46:37.028Z,1008.66
2018-07-04T03:47:37.014Z,1008.67
2018-07-04T03:48:36.993Z,1008.67
2018-07-04T03:49:37.028Z,1008.68
2018-07-04T03:50:36.959Z,1008.66
2018-07-04T03:51:36.944Z,1008.67
2018-07-04T03:52:36.927Z,1008.69
2018-07-04T03:53:36.910Z,1008.69
2018-07-04T03:54:36.895Z,1008.69
2018-07-04T03:55:36.925Z,1008.69
2018-07-04T03:56:36.859Z,1008.72
2018-07-04T03:57:36.843Z,1008.74
2018-07-04T03:58:36.825Z,1008.73
2018-07-04T03:59:36.863Z,1008.74
2018-07-04T04:00:36.792Z,1008.71
2018-07-04T04:01:36.776Z,1008.70
2018-07-04T04:02:36.757Z,1008.70
2018-07-04T04:03:36.740Z,1008.71
2018-07-04T04:04:36.724Z,1008.71
2018-07-04T04:05:36.759Z,1008.72
2018-07-04T04:06:36.693Z,1008.74
2018-07-04T04:07:36.678Z,1008.71
2018-07-04T04:08:36.658Z,1008.75
2018-07-04T04:09:36.644Z,1008.75
2018-07-04T04:10:36.673Z,1008.79
2018-07-04T04:11:36.610Z,1008.78
2018-07-04T04:12:36.591Z,1008.76
2018-07-04T04:13:36.572Z,1008.67
2018-07-04T04:14:36.561Z,1008.70
2018-07-04T04:15:36.592Z,1008.69
2018-07-04T04:16:36.527Z,1008.65
2018-07-04T04:17:36.508Z,1008.65
2018-07-04T04:18:36.488Z,1008.65
2018-07-04T04:19:36.474Z,1008.65
2018-07-04T04:20:36.507Z,1008.68
2018-07-04T04:21:36.440Z,1008.66
2018-07-04T04:22:36.426Z,1008.67
2018-07-04T04:23:36.405Z,1008.66
2018-07-04T04:24:36.392Z,1008.64
2018-07-04T04:25:36.377Z,1008.70
2018-07-04T04:26:36.411Z,1008.69
2018-07-04T04:27:36.344Z,1008.70
2018-07-04T04:28:36.322Z,1008.73
2018-07-04T04:29:36.308Z,1008.70
2018-07-04T04:30:36.293Z,1008.68
2018-07-04T04:31:36.273Z,1008.71
2018-07-04T04:32:36.308Z,1008.70
2018-07-04T04:33:36.241Z,1008.74
2018-07-04T04:34:36.232Z,1008.72
2018-07-04T04:35:36.208Z,1008.77
2018-07-04T04:36:36.191Z,1008.74
2018-07-04T04:37:36.178Z,1008.73
2018-07-04T04:38:36.222Z,1008.74
2018-07-04T04:39:36.145Z,1008.71
2018-07-04T04:40:36.220Z,1008.74
2018-07-04T04:41:36.108Z,1008.76
2018-07-04T04:42:36.142Z,1008.77
2018-07-04T04:43:36.102Z,1008.78
2018-07-04T04:44:36.058Z,1008.80
2018-07-04T04:45:36.043Z,1008.78
2018-07-04T04:46:36.024Z,1008.78
2018-07-04T04:47:36.059Z,1008.80
2018-07-04T04:48:35.994Z,1008.79
2018-07-04T04:49:35.979Z,1008.78
2018-07-04T04:50:35.958Z,1008.79
2018-07-04T04:51:35.944Z,1008.79
2018-07-04T04:52:35.929Z,1008.76
2018-07-04T04:53:35.963Z,1008.75
2018-07-04T04:54:35.895Z,1008.72
2018-07-04T04:55:35.877Z,1008.69
2018-07-04T04:56:35.861Z,1008.68
2018-07-04T04:57:35.848Z,1008.68
2018-07-04T04:58:35.880Z,1008.69
2018-07-04T04:59:35.815Z,1008.68
2018-07-04T05:00:35.797Z,1008.64
2018-07-04T05:01:35.780Z,1008.66
2018-07-04T05:02:35.768Z,1008.66
2018-07-04T05:03:35.798Z,1008.70
2018-07-04T05:04:35.732Z,1008.68
2018-07-04T05:05:35.723Z,1008.66
2018-07-04T05:06:35.705Z,1008.67
2018-07-04T05:07:35.684Z,1008.66
2018-07-04T05:08:35.671Z,1008.69
2018-07-04T05:09:35.709Z,1008.66
2018-07-04T05:10:35.640Z,1008.67
2018-07-04T05:11:35.624Z,1008.67
2018-07-04T05:12:35.603Z,1008.74
2018-07-04T05:13:35.589Z,1008.72
2018-07-04T05:14:35.631Z,1008.76
2018-07-04T05:15:35.622Z,1008.77
2018-07-04T05:16:35.543Z,1008.80
2018-07-04T05:17:35.533Z,1008.78
2018-07-04T05:18:35.516Z,1008.76
2018-07-04T05:19:35.503Z,1008.78
2018-07-04T05:20:35.528Z,1008.76
2018-07-04T05:21:35.466Z,1008.73
2018-07-04T05:22:35.446Z,1008.77
2018-07-04T05:23:35.431Z,1008.75
2018-07-04T05:24:35.416Z,1008.74
2018-07-04T05:25:35.407Z,1008.80
2018-07-04T05:26:35.447Z,1008.76
2018-07-04T05:27:35.420Z,1008.77
2018-07-04T05:28:35.355Z,1008.77
2018-07-04T05:29:35.337Z,1008.74
2018-07-04T05:30:35.325Z,1008.73
2018-07-04T05:31:35.307Z,1008.72
2018-07-04T05:32:35.291Z,1008.77
2018-07-04T05:33:35.329Z,1008.73
2018-07-04T05:34:35.263Z,1008.74
2018-07-04T05:35:35.244Z,1008.72
2018-07-04T05:36:35.229Z,1008.76
2018-07-04T05:37:35.219Z,1008.73
2018-07-04T05:38:35.199Z,1008.71
2018-07-04T05:39:35.236Z,1008.73
2018-07-04T05:40:35.168Z,1008.76
2018-07-04T05:41:35.155Z,1008.74
2018-07-04T05:42:35.339Z,1008.79
2018-07-04T05:43:35.121Z,1008.81
2018-07-04T05:44:35.386Z,1008.81
2018-07-04T05:45:35.097Z,1008.81
2018-07-04T05:46:35.077Z,1008.84
2018-07-04T05:47:35.079Z,1008.83
2018-07-04T05:48:35.048Z,1008.86
2018-07-04T05:49:35.083Z,1008.82
2018-07-04T05:50:35.022Z,1008.81
2018-07-04T05:51:35.004Z,1008.77
2018-07-04T05:52:34.990Z,1008.76
2018-07-04T05:53:34.976Z,1008.78
2018-07-04T05:54:34.960Z,1008.76
2018-07-04T05:55:34.995Z,1008.74
2018-07-04T05:56:34.930Z,1008.80
2018-07-04T05:57:34.915Z,1008.75
2018-07-04T05:58:34.904Z,1008.76
2018-07-04T05:59:34.887Z,1008.77
2018-07-04T06:00:34.871Z,1008.74
2018-07-04T06:01:34.907Z,1008.73
2018-07-04T06:02:35.080Z,1008.74
2018-07-04T06:03:34.832Z,1008.73
2018-07-04T06:04:34.816Z,1008.72
2018-07-04T06:05:34.799Z,1008.71
2018-07-04T06:06:34.835Z,1008.69
2018-07-04T06:07:34.774Z,1008.70
2018-07-04T06:08:34.761Z,1008.68
2018-07-04T06:09:34.748Z,1008.64
2018-07-04T06:10:34.728Z,1008.68
2018-07-04T06:11:34.765Z,1008.63
2018-07-04T06:12:35.311Z,1008.62
2018-07-04T06:13:34.687Z,1008.61
2018-07-04T06:14:34.673Z,1008.62
2018-07-04T06:15:34.657Z,1008.61
2018-07-04T06:16:34.850Z,1008.60
2018-07-04T06:17:34.938Z,1008.62
2018-07-04T06:18:34.616Z,1008.62
2018-07-04T06:19:34.606Z,1008.62
2018-07-04T06:20:34.592Z,1008.62
2018-07-04T06:21:34.576Z,1008.59
2018-07-04T06:22:34.868Z,1008.59
2018-07-04T06:23:34.595Z,1008.62
2018-07-04T06:24:34.532Z,1008.67
2018-07-04T06:25:34.520Z,1008.64
2018-07-04T06:26:34.548Z,1008.68
2018-07-04T06:27:34.492Z,1008.68
2018-07-04T06:28:34.829Z,1008.70
2018-07-04T06:29:34.464Z,1008.69
2018-07-04T06:30:34.450Z,1008.67
2018-07-04T06:31:34.437Z,1008.68
2018-07-04T06:32:34.424Z,1008.65
2018-07-04T06:33:34.412Z,1008.62
2018-07-04T06:34:34.748Z,1008.63
2018-07-04T06:35:34.383Z,1008.67
2018-07-04T06:36:34.369Z,1008.65
2018-07-04T06:37:34.355Z,1008.65
2018-07-04T06:38:34.342Z,1008.66
2018-07-04T06:39:34.327Z,1008.66
2018-07-04T06:40:34.568Z,1008.67
2018-07-04T06:41:34.328Z,1008.65
2018-07-04T06:42:34.292Z,1008.71
2018-07-04T06:43:34.275Z,1008.66
2018-07-04T06:44:34.262Z,1008.69
2018-07-04T06:45:34.247Z,1008.65
2018-07-04T06:46:34.287Z,1008.66
2018-07-04T06:47:34.226Z,1008.67
2018-07-04T06:48:34.208Z,1008.65
2018-07-04T06:49:34.197Z,1008.65
2018-07-04T06:50:34.180Z,1008.62
2018-07-04T06:51:34.472Z,1008.61
2018-07-04T06:52:34.204Z,1008.64
2018-07-04T06:53:34.140Z,1008.64
2018-07-04T06:54:34.269Z,1008.70
2018-07-04T06:55:34.112Z,1008.69
2018-07-04T06:56:34.099Z,1008.67
2018-07-04T06:57:34.388Z,1008.66
2018-07-04T06:58:34.123Z,1008.66
2018-07-04T06:59:34.060Z,1008.65
2018-07-04T07:00:34.048Z,1008.63
2018-07-04T07:01:34.035Z,1008.61
2018-07-04T07:02:34.020Z,1008.59
2018-07-04T07:03:34.917Z,1008.61
2018-07-04T07:04:34.045Z,1008.58
2018-07-04T07:05:33.986Z,1008.60
2018-07-04T07:06:33.968Z,1008.60
2018-07-04T07:07:33.957Z,1008.59
2018-07-04T07:08:37.060Z,1008.60
2018-07-04T07:09:34.720Z,1008.60
2018-07-04T07:10:33.919Z,1008.60
2018-07-04T07:11:33.909Z,1008.62
2018-07-04T07:12:33.892Z,1008.64
2018-07-04T07:13:33.880Z,1008.63
2018-07-04T07:14:33.868Z,1008.59
2018-07-04T07:15:34.212Z,1008.60
2018-07-04T07:16:33.844Z,1008.60
2018-07-04T07:17:33.827Z,1008.58
2018-07-04T07:18:33.814Z,1008.55
2018-07-04T07:19:33.800Z,1008.60
2018-07-04T07:20:33.788Z,1008.59
2018-07-04T07:21:34.139Z,1008.60
2018-07-04T07:22:33.765Z,1008.60
2018-07-04T07:23:33.753Z,1008.59
2018-07-04T07:24:33.740Z,1008.64
2018-07-04T07:25:33.982Z,1008.66
2018-07-04T07:26:35.132Z,1008.68
2018-07-04T07:27:33.753Z,1008.67
2018-07-04T07:28:33.692Z,1008.65
2018-07-04T07:29:34.283Z,1008.68
2018-07-04T07:30:33.717Z,1008.66
2018-07-04T07:31:33.653Z,1008.67
2018-07-04T07:32:33.640Z,1008.66
2018-07-04T07:33:33.933Z,1008.65
2018-07-04T07:34:33.615Z,1008.63
2018-07-04T07:35:35.020Z,1008.64
2018-07-04T07:36:52.845Z,1008.61
2018-07-04T07:37:46.316Z,1008.60
2018-07-04T07:38:33.568Z,1008.63
2018-07-04T07:39:33.560Z,1008.65
2018-07-04T07:40:33.544Z,1008.66
2018-07-04T07:41:33.545Z,1008.67
2018-07-04T07:42:34.277Z,1008.65
2018-07-04T07:43:33.512Z,1008.63
2018-07-04T07:44:33.501Z,1008.63
2018-07-04T07:46:06.996Z,1008.60
2018-07-04T07:46:33.679Z,1008.61
2018-07-04T07:47:39.737Z,1008.60
2018-07-04T07:48:34.113Z,1008.63
2018-07-04T07:49:33.446Z,1008.65
2018-07-04T07:50:33.632Z,1008.69
2018-07-04T07:51:33.720Z,1008.65
2018-07-04T07:52:34.824Z,1008.65
2018-07-04T07:53:33.405Z,1008.61
2018-07-04T07:54:35.301Z,1008.62
2018-07-04T07:55:36.414Z,1008.60
2018-07-04T07:56:33.368Z,1008.60
2018-07-04T07:57:33.676Z,1008.61
2018-07-04T07:58:34.765Z,1008.63
2018-07-04T07:59:33.341Z,1008.59
2018-07-04T08:00:33.388Z,1008.59
2018-07-04T08:01:33.321Z,1008.56
2018-07-04T08:02:33.309Z,1008.55
2018-07-04T08:03:33.600Z,1008.54
2018-07-04T08:04:33.292Z,1008.58
2018-07-04T08:05:33.286Z,1008.57
2018-07-04T08:06:33.323Z,1008.59
2018-07-04T08:07:33.263Z,1008.60
2018-07-04T08:08:33.260Z,1008.59
2018-07-04T08:09:33.563Z,1008.60
2018-07-04T08:10:33.240Z,1008.61
2018-07-04T08:11:33.579Z,1008.62
2018-07-04T08:12:33.223Z,1008.57
2018-07-04T08:13:33.216Z,1008.57
2018-07-04T08:14:33.202Z,1008.56
2018-07-04T08:15:33.498Z,1008.57
2018-07-04T08:16:33.190Z,1008.60
2018-07-04T08:17:39.495Z,1008.64
2018-07-04T08:18:33.176Z,1008.70
2018-07-04T08:19:33.165Z,1008.70
2018-07-04T08:20:33.157Z,1008.73
2018-07-04T08:21:34.055Z,1008.76
2018-07-04T08:22:33.745Z,1008.80
2018-07-04T08:23:33.178Z,1010.67
2018-07-04T08:24:33.129Z,1011.45
2018-07-04T08:25:33.120Z,1010.30
2018-07-04T08:26:33.108Z,1013.27
2018-07-04T08:27:33.404Z,1013.12
2018-07-04T08:28:33.146Z,1011.91
2018-07-04T08:29:33.091Z,1010.40
2018-07-04T08:30:33.078Z,1013.06
2018-07-04T08:31:33.070Z,1012.71
2018-07-04T08:32:33.072Z,1013.14
2018-07-04T08:33:33.396Z,1008.94
2018-07-04T08:34:33.112Z,1013.74
2018-07-04T08:35:33.654Z,1011.29
2018-07-04T08:36:33.044Z,1013.54
2018-07-04T08:37:33.033Z,1013.36
2018-07-04T08:38:33.029Z,1013.17
2018-07-04T08:39:33.320Z,1012.92
2018-07-04T08:40:33.069Z,1012.66
2018-07-04T08:41:33.011Z,1012.32
2018-07-04T08:42:33.002Z,1012.12
2018-07-04T08:43:32.995Z,1012.07
2018-07-04T08:44:32.999Z,1012.09
2018-07-04T08:45:33.345Z,1011.96
2018-07-04T08:46:32.983Z,1011.78
2018-07-04T08:47:36.008Z,1011.56
2018-07-04T08:48:32.971Z,1011.46
2018-07-04T08:49:32.968Z,1011.40
2018-07-04T08:50:33.019Z,1011.40
2018-07-04T08:51:33.260Z,1011.27
2018-07-04T08:52:32.961Z,1011.24
2018-07-04T08:53:32.953Z,1011.18
2018-07-04T08:54:33.143Z,1011.12
2018-07-04T08:55:32.987Z,1011.04
2018-07-04T08:56:32.936Z,1010.93
2018-07-04T08:57:33.233Z,1010.87
2018-07-04T08:58:32.955Z,1010.86
2018-07-04T08:59:32.922Z,1010.89
2018-07-04T09:00:32.920Z,1010.84
2018-07-04T09:01:32.964Z,1010.82
2018-07-04T09:02:32.914Z,1010.82
2018-07-04T09:03:33.415Z,1010.76
2018-07-04T09:04:32.919Z,1010.69
2018-07-04T09:05:32.908Z,1010.69
2018-07-04T09:06:32.947Z,1010.64
2018-07-04T09:07:32.897Z,1010.60
2018-07-04T09:08:32.896Z,1010.61
2018-07-04T09:09:33.204Z,1010.63
2018-07-04T09:10:33.904Z,1010.66
2018-07-04T09:11:32.972Z,1010.71
2018-07-04T09:12:33.089Z,1010.69
2018-07-04T09:13:33.489Z,1010.64
2018-07-04T09:14:32.900Z,1010.61
2018-07-04T09:15:34.593Z,1010.60
2018-07-04T09:16:33.128Z,1010.59
2018-07-04T09:17:32.877Z,1010.56
2018-07-04T09:18:32.872Z,1010.58
2018-07-04T09:19:32.871Z,1010.51
2018-07-04T09:20:34.281Z,1010.44
2018-07-04T09:21:33.167Z,1010.39
2018-07-04T09:22:32.913Z,1010.43
2018-07-04T09:23:32.861Z,1010.44
2018-07-04T09:24:32.877Z,1010.51
2018-07-04T09:25:32.864Z,1010.53
2018-07-04T09:26:32.860Z,1010.61
2018-07-04T09:27:33.464Z,1010.67
2018-07-04T09:29:06.320Z,1010.64
2018-07-04T09:29:32.883Z,1010.70
2018-07-04T09:30:32.852Z,1010.82
2018-07-04T09:31:32.853Z,1010.94
2018-07-04T09:32:32.906Z,1011.13
2018-07-04T09:33:32.908Z,1011.30
2018-07-04T09:34:33.057Z,1011.42
2018-07-04T09:35:32.853Z,1011.45
2018-07-04T09:36:32.852Z,1011.53
2018-07-04T09:37:32.865Z,1011.62
2018-07-04T09:38:33.162Z,1011.70
2018-07-04T09:39:52.102Z,1011.69
2018-07-04T09:40:32.855Z,1011.68
2018-07-04T09:41:32.856Z,1011.79
2018-07-04T09:42:32.867Z,1011.93
2018-07-04T09:43:32.854Z,1012.08
2018-07-04T09:44:33.165Z,1012.32
2018-07-04T09:45:33.508Z,1012.52
2018-07-04T09:46:32.860Z,1012.42
2018-07-04T09:47:32.857Z,1012.22
2018-07-04T09:48:32.855Z,1012.26
2018-07-04T09:49:32.881Z,1012.42
2018-07-04T09:50:33.155Z,1012.35
2018-07-04T09:51:52.115Z,1012.06
2018-07-04T09:52:32.856Z,1012.27
2018-07-04T09:53:52.067Z,1012.86
2018-07-04T09:54:58.580Z,1013.20
2018-07-04T09:55:32.856Z,1012.87
2018-07-04T09:56:33.155Z,1012.79
2018-07-04T09:57:33.060Z,1012.95
2018-07-04T09:58:32.855Z,1013.14
2018-07-04T09:59:58.887Z,1013.15
2018-07-04T10:00:32.872Z,1013.13
2018-07-04T10:01:33.465Z,1013.04
2018-07-04T10:02:33.163Z,1013.14
2018-07-04T10:03:32.865Z,1013.24
2018-07-04T10:04:33.472Z,1013.32
2018-07-04T10:05:33.520Z,1013.19
2018-07-04T10:06:32.870Z,1012.30
2018-07-04T10:07:33.069Z,1011.93
2018-07-04T10:08:33.368Z,1012.69
2018-07-04T10:09:32.868Z,1008.41
2018-07-04T10:10:32.873Z,1013.03
2018-07-04T10:11:35.965Z,1013.15
2018-07-04T10:12:32.914Z,1013.35
2018-07-04T10:13:32.900Z,1013.13
2018-07-04T10:14:33.177Z,1012.86
2018-07-04T10:15:33.538Z,1012.73
2018-07-04T10:16:32.886Z,1012.97
2018-07-04T10:17:32.884Z,1013.26
2018-07-04T10:18:32.879Z,1013.16
2018-07-04T10:19:33.490Z,1012.83
2018-07-04T10:20:39.453Z,1012.62
2018-07-04T10:21:34.354Z,1012.55
2018-07-04T10:22:32.891Z,1012.34
2018-07-04T10:23:32.888Z,1011.67
2018-07-04T10:24:32.956Z,1011.26
2018-07-04T10:25:33.099Z,1011.21
2018-07-04T10:26:34.608Z,1011.35
2018-07-04T10:27:32.951Z,1011.15
2018-07-04T10:28:32.901Z,1011.00
2018-07-04T10:29:32.903Z,1010.80
2018-07-04T10:30:32.905Z,1010.50
2018-07-04T10:31:32.901Z,1010.20
2018-07-04T10:32:33.356Z,1009.98
2018-07-04T10:33:33.115Z,1009.83
2018-07-04T10:34:35.945Z,1009.61
2018-07-04T10:35:33.115Z,1009.44
2018-07-04T10:36:33.125Z,1009.33
2018-07-04T10:37:33.525Z,1009.23
2018-07-04T10:38:33.274Z,1009.08
2018-07-04T10:39:34.341Z,1008.95
2018-07-04T10:40:33.537Z,1008.85
2018-07-04T10:41:32.932Z,1008.65
2018-07-04T10:42:33.153Z,1008.56
2018-07-04T10:43:32.939Z,1008.40
2018-07-04T10:44:33.490Z,1008.23
2018-07-04T10:45:33.144Z,1008.33
2018-07-04T10:46:33.153Z,1008.13
2018-07-04T10:47:32.949Z,1008.42
2018-07-04T10:48:32.965Z,1008.35
2018-07-04T10:49:32.957Z,1008.22
2018-07-04T10:50:36.365Z,1008.27
2018-07-04T10:51:32.966Z,1008.30
2018-07-04T10:52:32.964Z,1008.40
2018-07-04T10:53:33.173Z,1008.38
2018-07-04T10:54:32.977Z,1008.45
2018-07-04T10:55:33.176Z,1008.47
2018-07-04T10:56:33.275Z,1008.48
2018-07-04T10:57:33.585Z,1008.48
2018-07-04T10:58:33.023Z,1008.55
2018-07-04T10:59:33.597Z,1008.53
2018-07-04T11:00:33.191Z,1008.55
2018-07-04T11:01:45.777Z,1008.19
2018-07-04T11:02:39.562Z,1008.74
2018-07-04T11:03:32.998Z,1008.74
2018-07-04T11:04:33.083Z,1008.77
2018-07-04T11:05:33.017Z,1008.66
2018-07-04T11:06:33.057Z,1008.72
2018-07-04T11:07:33.015Z,1008.70
2018-07-04T11:08:33.544Z,1008.68
2018-07-04T11:09:33.049Z,1008.77
2018-07-04T11:10:33.060Z,1008.74
2018-07-04T11:11:33.036Z,1008.73
2018-07-04T11:12:34.289Z,1008.72
2018-07-04T11:13:45.773Z,1008.63
2018-07-04T11:14:33.541Z,1008.67
2018-07-04T11:15:33.048Z,1008.60
2018-07-04T11:16:33.048Z,1008.61
2018-07-04T11:17:33.185Z,1008.62
2018-07-04T11:18:34.482Z,1008.62
2018-07-04T11:19:33.285Z,1008.67
2018-07-04T11:20:33.568Z,1008.60
2018-07-04T11:21:33.067Z,1008.62
2018-07-04T11:22:33.086Z,1008.65
2018-07-04T11:23:33.329Z,1008.70
2018-07-04T11:24:33.082Z,1008.67
2018-07-04T11:25:33.083Z,1008.60
2018-07-04T11:26:33.091Z,1008.73
2018-07-04T11:27:33.103Z,1008.66
2018-07-04T11:28:36.128Z,1008.65
2018-07-04T11:29:33.361Z,1008.53
2018-07-04T11:30:33.713Z,1008.55
2018-07-04T11:31:36.440Z,1008.61
2018-07-04T11:32:58.786Z,1008.55
2018-07-04T11:33:34.534Z,1008.61
2018-07-04T11:34:33.369Z,1008.55
2018-07-04T11:35:33.319Z,1008.54
2018-07-04T11:36:33.129Z,1008.61
2018-07-04T11:37:33.436Z,1008.50
2018-07-04T11:38:33.333Z,1008.61
2018-07-04T11:39:33.151Z,1008.57
2018-07-04T11:40:33.187Z,1008.52
2018-07-04T11:41:33.138Z,1008.50
2018-07-04T11:42:33.744Z,1008.41
2018-07-04T11:43:33.671Z,1008.45
2018-07-04T11:44:33.757Z,1008.43
2018-07-04T11:45:33.200Z,1008.65
2018-07-04T11:46:33.144Z,1008.76
2018-07-04T11:47:34.433Z,1008.77
2018-07-04T11:48:33.155Z,1008.73
2018-07-04T11:49:33.523Z,1008.71
2018-07-04T11:50:33.153Z,1008.64
2018-07-04T11:51:33.207Z,1008.68
2018-07-04T11:52:33.159Z,1008.69
2018-07-04T11:53:33.367Z,1008.65
2018-07-04T11:54:39.463Z,1008.60
2018-07-04T11:55:34.068Z,1008.63
2018-07-04T11:56:33.190Z,1008.64
2018-07-04T11:57:33.519Z,1008.69
2018-07-04T11:58:33.166Z,1008.63
2018-07-04T11:59:33.172Z,1008.56
2018-07-04T12:00:39.442Z,1008.56
2018-07-04T12:01:39.744Z,1008.56
2018-07-04T12:02:33.380Z,1008.54
2018-07-04T12:03:33.224Z,1008.54
2018-07-04T12:04:52.383Z,1008.46
2018-07-04T12:05:33.282Z,1008.52